Time;durP1;ratioP1;P1;durP2;ratioP2;P2;SDS_P1;SDS_P2;PMS_P1;PMS_P2;Temp;Humidity;BMP_temperature;BMP_pressure;BME280_temperature;BME280_humidity;BME280_pressure;Samples;Min_cycle;Max_cycle;Signal;HPM_P1;HPM_P2
2024/01/09 00:00:19;;;;;;;17.65;6.45;;;;;;;-0.75;43.47;103429.31;5019242;27;97148;-73
2024/01/09 00:02:45;;;;;;;16.02;6.85;;;;;;;-0.73;43.37;103438.09;5019781;27;99884;-73
2024/01/09 00:05:13;;;;;;;17.45;7.55;;;;;;;-0.75;43.76;103435.41;5017221;28;99629;-72
2024/01/09 00:07:40;;;;;;;16.40;6.55;;;;;;;-0.79;44.45;103441.25;5025399;27;98487;-72
2024/01/09 00:10:10;;;;;;;20.35;8.00;;;;;;;-0.91;44.75;103440.56;5028225;27;97081;-73
2024/01/09 00:12:36;;;;;;;20.58;7.63;;;;;;;-1.01;45.49;103440.91;5020476;27;99283;-71
2024/01/09 00:15:04;;;;;;;22.55;7.55;;;;;;;-0.89;44.71;103439.88;5024337;27;99267;-72
2024/01/09 00:17:31;;;;;;;21.38;8.15;;;;;;;-0.98;45.69;103448.84;5019391;27;97142;-71
2024/01/09 00:19:57;;;;;;;18.67;7.25;;;;;;;-0.84;45.42;103448.78;5015853;27;97254;-72
2024/01/09 00:22:25;;;;;;;19.25;7.63;;;;;;;-0.92;45.63;103444.00;5020047;27;97927;-72
2024/01/09 00:24:52;;;;;;;21.35;7.60;;;;;;;-0.84;45.34;103447.88;5025266;27;98071;-79
2024/01/09 00:27:19;;;;;;;19.05;7.28;;;;;;;-1.03;45.91;103448.59;5015801;27;97076;-78
2024/01/09 00:29:46;;;;;;;20.05;7.03;;;;;;;-1.14;46.04;103454.03;5026348;27;97400;-72
2024/01/09 00:32:12;;;;;;;16.30;7.40;;;;;;;-1.30;46.06;103450.56;5015965;27;99491;-71
2024/01/09 00:34:41;;;;;;;19.77;7.05;;;;;;;-1.16;46.17;103453.03;5023204;27;100103;-73
2024/01/09 00:37:08;;;;;;;22.73;8.68;;;;;;;-1.12;45.87;103449.81;5021365;27;96623;-77
2024/01/09 00:39:37;;;;;;;17.52;7.35;;;;;;;-1.20;46.08;103449.38;5029375;27;96734;-77
2024/01/09 00:42:06;;;;;;;16.27;6.82;;;;;;;-1.18;46.15;103452.06;5021531;27;97871;-72
2024/01/09 00:44:33;;;;;;;20.55;7.57;;;;;;;-1.06;45.39;103453.66;5016500;27;101323;-77
2024/01/09 00:47:00;;;;;;;22.63;7.75;;;;;;;-1.43;45.75;103452.38;5024749;27;97066;-76
2024/01/09 00:49:26;;;;;;;19.20;7.03;;;;;;;-1.50;45.89;103447.66;5022125;27;96805;-72
2024/01/09 00:51:57;;;;;;;22.38;8.30;;;;;;;-1.40;46.27;103447.38;5021216;27;102040;-78
2024/01/09 00:54:23;;;;;;;21.17;6.95;;;;;;;-1.24;45.26;103447.41;5015490;27;97960;-72
2024/01/09 00:56:53;;;;;;;19.20;6.68;;;;;;;-1.18;45.09;103449.47;5018281;27;97735;-78
2024/01/09 00:59:19;;;;;;;20.00;6.82;;;;;;;-1.15;44.99;103441.84;5021188;27;97133;-75
2024/01/09 01:01:51;;;;;;;19.42;6.82;;;;;;;-1.11;45.26;103446.38;5023657;27;101500;-73
2024/01/09 01:04:18;;;;;;;20.88;7.05;;;;;;;-1.07;44.99;103453.56;5021047;27;97763;-72
2024/01/09 01:06:46;;;;;;;17.98;6.95;;;;;;;-1.30;44.72;103447.06;5018067;27;96979;-77
2024/01/09 01:09:13;;;;;;;21.63;7.47;;;;;;;-1.25;45.02;103448.25;5021426;27;97118;-73
2024/01/09 01:11:41;;;;;;;19.10;6.78;;;;;;;-1.49;45.15;103447.75;5014035;27;100459;-72
2024/01/09 01:14:09;;;;;;;17.95;6.63;;;;;;;-1.37;45.39;103445.84;5028732;27;99392;-73
2024/01/09 01:16:36;;;;;;;17.50;6.80;;;;;;;-1.33;44.83;103450.41;5022016;27;96738;-71
2024/01/09 01:19:03;;;;;;;15.77;6.20;;;;;;;-1.32;44.97;103440.94;5027114;28;96908;-73
2024/01/09 01:21:30;;;;;;;20.50;8.02;;;;;;;-1.28;44.80;103448.97;5025693;27;97162;-72
2024/01/09 01:24:00;;;;;;;20.08;7.60;;;;;;;-1.29;45.17;103441.09;5023417;27;97050;-78
2024/01/09 01:26:34;;;;;;;18.25;6.85;;;;;;;-1.25;45.23;103436.13;5018140;27;97723;-72
2024/01/09 01:29:01;;;;;;;21.08;6.63;;;;;;;-1.27;45.11;103439.47;5024957;27;97142;-74
2024/01/09 01:31:30;;;;;;;19.70;7.63;;;;;;;-1.42;45.35;103438.63;5024220;27;97306;-72
2024/01/09 01:33:57;;;;;;;15.20;6.38;;;;;;;-1.28;45.02;103443.78;5015978;27;99114;-78
2024/01/09 01:36:24;;;;;;;19.35;6.63;;;;;;;-1.21;45.03;103445.00;5026592;27;97291;-78
2024/01/09 01:38:51;;;;;;;17.38;6.50;;;;;;;-1.42;45.06;103442.09;5017280;27;97132;-72
2024/01/09 01:41:19;;;;;;;21.98;7.18;;;;;;;-1.31;44.58;103447.88;5017149;27;98890;-72
2024/01/09 01:43:45;;;;;;;21.58;7.88;;;;;;;-1.45;45.04;103454.91;5023428;27;99936;-72
2024/01/09 01:46:12;;;;;;;22.23;7.03;;;;;;;-1.39;44.87;103449.19;5020638;27;96688;-72
2024/01/09 01:48:41;;;;;;;17.42;6.57;;;;;;;-1.28;44.88;103451.56;5014771;27;97884;-71
2024/01/09 01:51:08;;;;;;;16.77;7.10;;;;;;;-1.53;44.94;103437.13;5020283;27;97553;-71
2024/01/09 01:53:36;;;;;;;18.02;7.15;;;;;;;-1.64;45.12;103441.69;5016551;27;98189;-71
2024/01/09 01:56:02;;;;;;;21.40;8.00;;;;;;;-1.57;45.16;103442.94;5023056;27;96809;-76
2024/01/09 01:58:32;;;;;;;18.75;8.30;;;;;;;-1.54;44.92;103441.41;5028621;27;96761;-70
2024/01/09 02:00:59;;;;;;;21.50;6.90;;;;;;;-1.42;44.99;103443.81;5014584;27;100013;-72
2024/01/09 02:03:26;;;;;;;20.33;6.97;;;;;;;-1.56;45.17;103452.50;5017576;27;98046;-77
2024/01/09 02:05:56;;;;;;;22.05;7.40;;;;;;;-1.75;45.42;103445.38;5018958;27;97106;-75
2024/01/09 02:08:26;;;;;;;20.08;7.50;;;;;;;-1.61;45.14;103450.56;5028341;27;97257;-73
2024/01/09 02:10:55;;;;;;;17.67;6.28;;;;;;;-1.67;45.20;103446.72;5026610;27;101232;-73
2024/01/09 02:13:22;;;;;;;20.77;7.82;;;;;;;-1.88;45.98;103458.44;5026471;27;100485;-77
2024/01/09 02:15:49;;;;;;;21.60;7.97;;;;;;;-1.77;46.14;103459.97;5020808;27;97267;-75
2024/01/09 02:18:15;;;;;;;21.50;7.32;;;;;;;-1.77;46.10;103452.19;5030443;27;96837;-76
2024/01/09 02:20:42;;;;;;;22.90;8.20;;;;;;;-1.61;45.35;103447.06;5021131;27;97717;-71
2024/01/09 02:23:10;;;;;;;19.60;7.30;;;;;;;-1.55;45.52;103442.22;5016052;27;100761;-71
2024/01/09 02:25:36;;;;;;;17.88;6.88;;;;;;;-1.48;45.14;103444.34;5018262;27;97438;-71
2024/01/09 02:28:08;;;;;;;23.40;7.57;;;;;;;-1.62;45.28;103443.56;5023533;27;97177;-71
2024/01/09 02:30:37;;;;;;;17.92;7.13;;;;;;;-1.55;45.25;103441.31;5023598;27;98398;-71
2024/01/09 02:33:05;;;;;;;17.55;6.80;;;;;;;-1.76;45.43;103454.84;5020295;27;99964;-71
2024/01/09 02:35:32;;;;;;;19.23;7.78;;;;;;;-1.73;45.50;103457.63;5022871;27;96696;-71
2024/01/09 02:37:59;;;;;;;17.80;6.97;;;;;;;-1.66;45.38;103461.47;5024743;27;97463;-71
2024/01/09 02:40:25;;;;;;;22.42;7.97;;;;;;;-1.70;45.28;103457.78;5020395;27;99132;-71
2024/01/09 02:42:51;;;;;;;20.48;7.43;;;;;;;-1.73;45.28;103454.16;5023686;27;99149;-71
2024/01/09 02:45:18;;;;;;;20.60;7.75;;;;;;;-1.62;45.32;103443.56;5028648;27;96824;-71
2024/01/09 02:47:46;;;;;;;16.98;7.10;;;;;;;-1.65;45.21;103455.47;5028484;27;97211;-71
2024/01/09 02:50:12;;;;;;;21.65;7.03;;;;;;;-1.55;45.22;103460.38;5027392;27;101747;-71
2024/01/09 02:52:38;;;;;;;20.13;7.40;;;;;;;-1.55;44.71;103457.78;5024582;27;98760;-71
2024/01/09 02:55:05;;;;;;;19.58;7.20;;;;;;;-1.56;45.29;103447.31;5014961;27;97188;-71
2024/01/09 02:57:31;;;;;;;22.70;7.68;;;;;;;-1.85;45.37;103448.25;5027621;27;97009;-71
2024/01/09 02:59:57;;;;;;;21.33;7.82;;;;;;;-1.80;45.38;103455.50;5026128;27;99003;-71
2024/01/09 03:02:24;;;;;;;18.60;7.32;;;;;;;-1.70;45.23;103452.59;5019682;27;99401;-71
2024/01/09 03:04:51;;;;;;;23.35;7.88;;;;;;;-1.72;45.51;103454.25;5015725;27;96873;-72
2024/01/09 03:07:18;;;;;;;21.67;7.95;;;;;;;-1.92;45.39;103443.53;5013042;27;97425;-71
2024/01/09 03:09:44;;;;;;;24.38;8.38;;;;;;;-1.89;45.62;103451.47;5018863;27;99163;-71
2024/01/09 03:12:10;;;;;;;21.15;7.35;;;;;;;-1.88;45.81;103453.25;5019796;27;99011;-72
2024/01/09 03:14:38;;;;;;;18.85;7.75;;;;;;;-1.96;46.32;103463.16;5025225;27;97205;-71
2024/01/09 03:17:05;;;;;;;20.52;6.78;;;;;;;-1.87;45.79;103468.91;5013156;27;98837;-71
2024/01/09 03:19:32;;;;;;;20.92;7.97;;;;;;;-1.88;45.69;103451.56;5021071;27;100881;-71
2024/01/09 03:21:59;;;;;;;20.75;7.68;;;;;;;-1.92;45.97;103456.47;5017773;27;98912;-74
2024/01/09 03:24:26;;;;;;;18.50;7.65;;;;;;;-1.76;45.47;103464.31;5026595;27;96859;-72
2024/01/09 03:26:53;;;;;;;20.75;7.72;;;;;;;-1.80;45.86;103457.19;5026790;27;97223;-71
2024/01/09 03:29:19;;;;;;;17.85;6.90;;;;;;;-1.80;45.92;103457.19;5019114;27;99582;-71
2024/01/09 03:31:46;;;;;;;19.92;8.43;;;;;;;-1.93;45.93;103453.00;5022106;27;99127;-72
2024/01/09 03:34:12;;;;;;;22.73;7.53;;;;;;;-1.80;45.73;103457.19;5023697;27;96704;-72
2024/01/09 03:36:39;;;;;;;20.70;7.90;;;;;;;-1.81;45.68;103458.00;5013753;27;96830;-71
2024/01/09 03:39:09;;;;;;;28.35;8.25;;;;;;;-1.68;45.72;103461.38;5019229;27;98306;-71
2024/01/09 03:41:35;;;;;;;22.50;8.55;;;;;;;-1.80;45.59;103459.78;5022168;27;100519;-71
2024/01/09 03:44:02;;;;;;;20.30;7.40;;;;;;;-1.75;45.68;103450.56;5024819;27;97807;-71
2024/01/09 03:46:28;;;;;;;24.45;7.28;;;;;;;-1.76;45.17;103451.34;5019987;27;97574;-72
2024/01/09 03:48:56;;;;;;;24.67;8.02;;;;;;;-1.85;45.65;103449.16;5016117;27;98252;-72
2024/01/09 03:51:22;;;;;;;23.30;8.15;;;;;;;-1.81;45.48;103445.03;5015114;27;100169;-71
2024/01/09 03:53:49;;;;;;;22.92;8.43;;;;;;;-2.06;46.38;103450.50;5021119;27;97509;-71
2024/01/09 03:56:16;;;;;;;19.55;7.40;;;;;;;-2.16;46.64;103454.22;5018686;27;96789;-72
2024/01/09 03:58:43;;;;;;;27.42;8.15;;;;;;;-2.38;47.56;103453.78;5020706;27;98831;-70
2024/01/09 04:01:10;;;;;;;28.90;8.80;;;;;;;-2.69;47.83;103458.75;5014661;27;97440;-72
2024/01/09 04:03:36;;;;;;;24.80;7.80;;;;;;;-2.65;48.02;103460.75;5023507;27;100128;-71
2024/01/09 04:06:03;;;;;;;22.63;7.95;;;;;;;-2.58;47.95;103464.63;5021772;27;96843;-71
2024/01/09 04:08:29;;;;;;;25.20;8.77;;;;;;;-2.34;47.64;103463.50;5020924;27;98856;-71
2024/01/09 04:10:56;;;;;;;26.17;8.98;;;;;;;-2.38;47.50;103456.34;5023473;27;99430;-71
2024/01/09 04:13:24;;;;;;;26.88;8.40;;;;;;;-2.33;47.26;103451.44;5018669;27;97351;-70
2024/01/09 04:15:50;;;;;;;27.55;7.82;;;;;;;-2.05;46.81;103448.00;5018142;27;97633;-71
2024/01/09 04:18:17;;;;;;;20.50;8.35;;;;;;;-2.13;46.58;103450.94;5025642;27;99038;-71
2024/01/09 04:20:43;;;;;;;22.73;8.52;;;;;;;-1.88;45.92;103450.66;5020214;27;98828;-71
2024/01/09 04:23:10;;;;;;;28.05;9.52;;;;;;;-1.88;46.27;103450.66;5017024;27;97356;-71
2024/01/09 04:25:36;;;;;;;23.65;8.60;;;;;;;-1.91;45.76;103455.69;5022856;27;96914;-70
2024/01/09 04:28:02;;;;;;;24.25;8.55;;;;;;;-1.85;45.77;103456.03;5027214;27;98241;-71
2024/01/09 04:30:30;;;;;;;23.35;8.93;;;;;;;-1.81;45.46;103460.59;5021383;27;99531;-71
2024/01/09 04:32:56;;;;;;;23.98;9.68;;;;;;;-2.03;45.85;103466.19;5024762;27;96985;-71
2024/01/09 04:35:23;;;;;;;29.35;9.65;;;;;;;-1.95;45.97;103461.47;5023462;27;99701;-72
2024/01/09 04:37:49;;;;;;;24.95;9.48;;;;;;;-1.93;45.99;103457.28;5016438;27;99094;-71
2024/01/09 04:40:16;;;;;;;32.95;11.27;;;;;;;-2.29;46.38;103453.41;5018311;27;98824;-71
2024/01/09 04:42:42;;;;;;;26.92;9.20;;;;;;;-2.09;45.97;103453.78;5024166;27;96844;-70
2024/01/09 04:45:09;;;;;;;22.83;8.90;;;;;;;-1.94;46.10;103458.09;5025092;27;96842;-71
2024/01/09 04:47:37;;;;;;;29.90;9.60;;;;;;;-1.84;45.69;103457.81;5019322;27;98569;-71
2024/01/09 04:50:04;;;;;;;26.30;9.02;;;;;;;-2.24;46.37;103452.91;5018929;27;99604;-70
2024/01/09 04:52:30;;;;;;;29.33;10.23;;;;;;;-2.44;46.74;103456.00;5017347;27;96708;-70
2024/01/09 04:54:56;;;;;;;38.08;10.27;;;;;;;-2.53;47.56;103456.31;5017377;27;98304;-71
2024/01/09 04:57:23;;;;;;;24.45;8.65;;;;;;;-2.55;47.72;103457.00;5022987;27;100929;-70
2024/01/09 04:59:50;;;;;;;23.27;8.50;;;;;;;-2.27;47.11;103457.88;5022877;27;98723;-71
2024/01/09 05:02:16;;;;;;;20.90;8.65;;;;;;;-2.17;46.60;103452.47;5017608;27;97402;-70
2024/01/09 05:04:44;;;;;;;24.83;8.77;;;;;;;-2.15;46.48;103456.00;5021965;27;97029;-71
2024/01/09 05:07:10;;;;;;;26.80;8.85;;;;;;;-2.12;46.21;103456.22;5023999;27;99342;-72
2024/01/09 05:09:37;;;;;;;22.90;8.68;;;;;;;-2.13;46.40;103454.41;5014641;27;99542;-71
2024/01/09 05:12:04;;;;;;;29.17;9.52;;;;;;;-2.08;46.29;103457.28;5011497;27;97306;-72
2024/01/09 05:14:30;;;;;;;27.80;9.57;;;;;;;-1.87;45.88;103450.75;5017458;27;97956;-71
2024/01/09 05:16:56;;;;;;;29.98;9.65;;;;;;;-1.91;45.82;103450.50;5021115;27;97594;-71
2024/01/09 05:19:22;;;;;;;24.05;9.52;;;;;;;-2.17;45.93;103459.34;5022894;27;98793;-71
2024/01/09 05:21:50;;;;;;;28.95;8.98;;;;;;;-2.33;46.66;103465.28;5016222;27;97291;-71
2024/01/09 05:24:16;;;;;;;26.95;9.85;;;;;;;-2.29;47.02;103459.47;5011735;27;96777;-70
2024/01/09 05:26:43;;;;;;;31.27;11.05;;;;;;;-2.04;46.36;103460.16;5024415;27;99373;-71
2024/01/09 05:29:09;;;;;;;32.03;9.40;;;;;;;-2.01;46.48;103464.59;5021231;27;98786;-71
2024/01/09 05:31:42;;;;;;;29.95;9.65;;;;;;;-2.28;47.47;103468.16;5015661;27;97003;-71
2024/01/09 05:34:08;;;;;;;22.95;8.65;;;;;;;-2.55;47.88;103462.19;5022084;27;97306;-71
2024/01/09 05:36:34;;;;;;;24.75;8.95;;;;;;;-2.18;47.10;103460.13;5021542;27;97799;-72
2024/01/09 05:39:03;;;;;;;25.77;8.95;;;;;;;-1.99;46.63;103456.94;5021596;27;98768;-70
2024/01/09 05:41:29;;;;;;;27.02;9.23;;;;;;;-2.12;47.03;103461.38;5013133;27;96759;-70
2024/01/09 05:43:56;;;;;;;32.70;9.77;;;;;;;-2.08;46.82;103455.56;5022091;27;96879;-71
2024/01/09 05:46:23;;;;;;;25.05;8.43;;;;;;;-1.79;46.15;103456.38;5019800;27;98821;-70
2024/01/09 05:48:49;;;;;;;26.48;9.60;;;;;;;-1.86;45.54;103455.13;5027683;27;99585;-71
2024/01/09 05:51:15;;;;;;;28.83;9.65;;;;;;;-1.99;45.74;103464.69;5019613;27;97163;-70
2024/01/09 05:53:42;;;;;;;24.52;8.98;;;;;;;-1.89;45.92;103460.13;5022209;27;96853;-71
2024/01/09 05:56:09;;;;;;;26.38;9.18;;;;;;;-1.95;46.01;103459.78;5022571;27;98941;-71
2024/01/09 05:58:36;;;;;;;29.00;10.05;;;;;;;-1.97;46.15;103465.69;5026369;27;101364;-71
2024/01/09 06:01:03;;;;;;;27.63;9.07;;;;;;;-2.01;46.15;103459.41;5013177;27;96955;-70
2024/01/09 06:03:29;;;;;;;27.20;9.32;;;;;;;-2.10;46.29;103459.75;5019141;27;100008;-70
2024/01/09 06:05:56;;;;;;;22.70;9.20;;;;;;;-2.23;46.40;103462.44;5032476;27;99126;-76
2024/01/09 06:08:22;;;;;;;28.20;10.05;;;;;;;-2.06;46.17;103464.34;5023763;27;99113;-76
2024/01/09 06:10:49;;;;;;;25.13;9.35;;;;;;;-2.32;46.39;103467.09;5035416;27;96780;-76
2024/01/09 06:13:16;;;;;;;27.95;9.95;;;;;;;-2.01;46.47;103460.31;5022315;27;97730;-76
2024/01/09 06:15:43;;;;;;;28.80;9.55;;;;;;;-1.95;46.21;103458.88;5028359;27;99116;-76
2024/01/09 06:18:09;;;;;;;30.23;10.55;;;;;;;-1.97;46.21;103452.75;5021775;27;99645;-75
2024/01/09 06:20:36;;;;;;;26.55;10.05;;;;;;;-1.94;46.08;103455.50;5023856;27;96933;-75
2024/01/09 06:23:03;;;;;;;28.20;9.55;;;;;;;-1.92;46.47;103457.38;5019989;27;99799;-76
2024/01/09 06:25:29;;;;;;;30.98;9.73;;;;;;;-1.99;46.33;103457.81;5027678;27;97616;-75
2024/01/09 06:27:56;;;;;;;24.70;9.20;;;;;;;-2.01;46.55;103464.59;5021860;27;99192;-76
2024/01/09 06:30:23;;;;;;;31.50;10.32;;;;;;;-2.34;47.51;103466.09;5023931;27;99103;-77
2024/01/09 06:32:50;;;;;;;32.55;10.60;;;;;;;-2.30;47.29;103465.50;5021667;27;98143;-77
2024/01/09 06:35:16;;;;;;;29.98;10.40;;;;;;;-2.01;46.81;103460.31;5028904;27;97710;-71
2024/01/09 06:37:43;;;;;;;28.65;10.20;;;;;;;-2.26;46.89;103472.63;5027607;27;101225;-72
2024/01/09 06:40:10;;;;;;;32.17;10.18;;;;;;;-2.42;47.64;103472.50;5023492;27;96927;-72
2024/01/09 06:42:36;;;;;;;29.60;11.30;;;;;;;-2.67;48.55;103474.38;5019804;27;97593;-72
2024/01/09 06:45:03;;;;;;;27.33;9.98;;;;;;;-3.04;49.71;103484.16;5022174;27;99128;-72
2024/01/09 06:47:31;;;;;;;32.25;10.88;;;;;;;-3.16;49.89;103481.69;5023078;27;101063;-71
2024/01/09 06:49:58;;;;;;;28.90;9.50;;;;;;;-2.98;49.86;103485.44;5025081;27;97141;-72
2024/01/09 06:52:24;;;;;;;28.55;10.50;;;;;;;-2.80;49.65;103480.50;5027982;27;97119;-72
2024/01/09 06:54:51;;;;;;;32.17;10.02;;;;;;;-2.69;49.05;103487.22;5027449;27;100306;-72
2024/01/09 06:57:17;;;;;;;24.75;9.95;;;;;;;-2.70;48.96;103479.41;5023839;27;99226;-72
2024/01/09 06:59:44;;;;;;;32.08;10.68;;;;;;;-2.37;48.19;103485.75;5017976;27;96793;-70
2024/01/09 07:02:11;;;;;;;35.20;10.73;;;;;;;-2.21;47.67;103480.66;5023631;27;97086;-72
2024/01/09 07:04:38;;;;;;;29.73;10.75;;;;;;;-2.13;47.60;103475.13;5024168;27;98981;-72
2024/01/09 07:07:05;;;;;;;25.20;10.00;;;;;;;-2.35;47.42;103485.00;5029796;27;98723;-71
2024/01/09 07:09:32;;;;;;;29.42;9.88;;;;;;;-2.23;47.46;103488.34;5023768;27;97211;-72
2024/01/09 07:11:58;;;;;;;31.48;12.25;;;;;;;-2.04;47.91;103486.06;5024180;27;97416;-72
2024/01/09 07:14:25;;;;;;;26.25;10.23;;;;;;;-1.99;48.08;103488.03;5021632;27;98890;-72
2024/01/09 07:16:52;;;;;;;40.40;11.20;;;;;;;-2.22;47.50;103490.13;5022932;27;99046;-72
2024/01/09 07:19:18;;;;;;;34.35;10.63;;;;;;;-2.48;48.81;103492.84;5026655;27;98248;-72
2024/01/09 07:21:46;;;;;;;29.88;10.00;;;;;;;-2.30;49.13;103493.97;5021929;27;98408;-72
2024/01/09 07:24:12;;;;;;;31.15;10.75;;;;;;;-2.18;48.04;103493.81;5022103;27;99092;-72
2024/01/09 07:26:39;;;;;;;33.33;10.73;;;;;;;-1.95;48.10;103484.78;5019813;27;100553;-73
2024/01/09 07:29:06;;;;;;;26.38;10.35;;;;;;;-1.98;47.92;103484.63;5018729;27;97533;-72
2024/01/09 07:31:32;;;;;;;28.88;11.00;;;;;;;-1.99;47.50;103490.59;5017541;27;97331;-72
2024/01/09 07:33:59;;;;;;;33.72;11.23;;;;;;;-2.05;47.57;103499.81;5006937;27;99272;-72
2024/01/09 07:36:25;;;;;;;31.60;11.50;;;;;;;-2.04;48.32;103500.72;5009343;27;100124;-71
2024/01/09 07:38:53;;;;;;;33.40;11.30;;;;;;;-1.89;47.07;103498.09;5011841;27;97072;-71
2024/01/09 07:41:19;;;;;;;28.30;9.93;;;;;;;-1.97;47.28;103500.28;5007662;27;98306;-72
2024/01/09 07:43:45;;;;;;;39.17;12.05;;;;;;;-2.04;46.87;103501.63;5013546;27;99590;-71
2024/01/09 07:46:12;;;;;;;31.35;11.20;;;;;;;-1.80;47.08;103496.97;5009235;27;98865;-72
2024/01/09 07:48:39;;;;;;;30.58;11.00;;;;;;;-1.74;46.91;103494.72;5015348;27;97307;-71
2024/01/09 07:51:05;;;;;;;31.23;11.63;;;;;;;-1.75;46.40;103505.00;5017339;27;97343;-71
2024/01/09 07:53:31;;;;;;;41.40;11.57;;;;;;;-1.93;46.89;103511.69;5019453;27;99242;-71
2024/01/09 07:56:00;;;;;;;28.83;10.57;;;;;;;-1.69;46.32;103511.44;5021673;27;99718;-71
2024/01/09 07:58:26;;;;;;;29.45;10.88;;;;;;;-1.74;46.47;103514.56;5024191;27;98969;-71
2024/01/09 08:00:53;;;;;;;29.92;11.32;;;;;;;-1.75;46.48;103512.78;5019977;27;97088;-71
2024/01/09 08:03:20;;;;;;;26.98;10.60;;;;;;;-1.79;46.86;103518.59;5013593;28;101666;-71
2024/01/09 08:05:46;;;;;;;25.52;11.02;;;;;;;-1.75;46.62;103511.09;5015086;27;98995;-71
2024/01/09 08:08:12;;;;;;;45.03;11.80;;;;;;;-1.71;46.16;103515.63;5020058;27;96757;-71
2024/01/09 08:10:39;;;;;;;34.45;11.82;;;;;;;-1.80;46.58;103528.06;5025286;27;96912;-71
2024/01/09 08:13:06;;;;;;;34.90;10.88;;;;;;;-1.76;46.74;103521.34;5024680;27;101807;-71
2024/01/09 08:15:33;;;;;;;37.15;12.20;;;;;;;-1.71;46.61;103525.13;5019974;27;98863;-71
2024/01/09 08:18:00;;;;;;;32.53;11.73;;;;;;;-2.03;46.99;103523.22;5010053;27;96794;-72
2024/01/09 08:20:26;;;;;;;32.97;11.75;;;;;;;-1.73;46.43;103524.13;5024004;27;97758;-72
2024/01/09 08:22:52;;;;;;;35.50;12.35;;;;;;;-1.85;47.01;103520.84;5018455;27;100694;-72
2024/01/09 08:25:19;;;;;;;34.38;12.07;;;;;;;-1.43;45.89;103525.91;5027083;27;99307;-72
2024/01/09 08:27:45;;;;;;;41.65;12.25;;;;;;;-1.50;46.23;103526.34;5008826;27;97004;-71
2024/01/09 08:30:14;;;;;;;29.60;12.40;;;;;;;-1.12;45.05;103523.38;5018749;27;96814;-71
2024/01/09 08:32:41;;;;;;;34.83;12.48;;;;;;;-1.52;44.96;103522.81;5013158;27;99188;-71
2024/01/09 08:35:08;;;;;;;32.33;12.50;;;;;;;-1.68;45.93;103520.09;5020342;27;99119;-73
2024/01/09 08:37:34;;;;;;;39.25;12.63;;;;;;;-1.48;45.80;103522.16;5023333;27;97350;-72
2024/01/09 08:40:00;;;;;;;35.03;12.43;;;;;;;-1.43;45.30;103519.81;5022215;28;97242;-71
2024/01/09 08:42:27;;;;;;;35.65;13.13;;;;;;;-1.62;45.89;103507.50;5021512;27;100952;-71
2024/01/09 08:44:53;;;;;;;35.53;11.93;;;;;;;-0.91;45.23;103510.66;5020021;27;100731;-72
2024/01/09 08:47:21;;;;;;;35.55;12.40;;;;;;;-0.86;44.13;103502.34;5024948;27;96784;-72
2024/01/09 08:49:47;;;;;;;39.78;12.40;;;;;;;-0.66;43.86;103512.91;5024556;27;96877;-72
2024/01/09 08:52:13;;;;;;;35.63;12.68;;;;;;;-0.51;43.59;103498.13;5023857;27;98917;-72
2024/01/09 08:54:40;;;;;;;34.83;13.35;;;;;;;-0.51;43.50;103509.41;5025352;27;98966;-72
2024/01/09 08:57:06;;;;;;;33.53;12.50;;;;;;;-0.81;43.83;103512.97;5026160;27;96735;-71
2024/01/09 08:59:32;;;;;;;41.75;13.52;;;;;;;-0.91;44.15;103508.06;5021291;27;96813;-71
2024/01/09 09:01:59;;;;;;;33.80;12.63;;;;;;;-0.74;44.40;103512.50;5014213;27;102617;-71
2024/01/09 09:04:26;;;;;;;37.25;12.93;;;;;;;-0.59;43.58;103515.91;5025822;27;99238;-71
2024/01/09 09:06:53;;;;;;;41.90;12.93;;;;;;;-0.56;43.75;103513.47;5019690;27;97367;-71
2024/01/09 09:09:20;;;;;;;39.85;13.52;;;;;;;-0.68;43.54;103510.22;5024133;27;97201;-71
2024/01/09 09:11:46;;;;;;;39.75;12.43;;;;;;;-0.67;43.14;103511.13;5023947;27;99001;-71
2024/01/09 09:14:12;;;;;;;38.13;12.88;;;;;;;-0.44;42.86;103510.66;5023742;27;98784;-71
2024/01/09 09:16:40;;;;;;;33.03;12.15;;;;;;;-0.56;42.60;103508.28;5024940;27;96800;-72
2024/01/09 09:19:06;;;;;;;34.83;12.65;;;;;;;-0.44;42.77;103510.66;5016984;28;97252;-72
2024/01/09 09:21:34;;;;;;;36.15;12.43;;;;;;;-0.23;42.29;103514.38;5019735;27;97651;-71
2024/01/09 09:24:00;;;;;;;34.88;12.23;;;;;;;-0.26;42.37;103508.16;5026971;27;99575;-70
2024/01/09 09:26:27;;;;;;;38.40;13.85;;;;;;;-0.06;42.19;103507.44;5022004;27;96853;-70
2024/01/09 09:28:54;;;;;;;35.10;13.25;;;;;;;-0.12;42.32;103507.13;5023070;27;98290;-72
2024/01/09 09:31:21;;;;;;;34.30;12.93;;;;;;;-0.10;41.93;103514.22;5018322;27;98219;-73
2024/01/09 09:33:47;;;;;;;36.83;13.10;;;;;;;0.42;41.34;103502.94;5014041;27;99289;-72
2024/01/09 09:36:14;;;;;;;41.95;13.82;;;;;;;0.13;41.58;103494.56;5021343;27;96709;-72
2024/01/09 09:38:42;;;;;;;41.42;14.30;;;;;;;0.29;40.90;103498.84;5023401;27;97632;-73
2024/01/09 09:41:08;;;;;;;35.03;13.50;;;;;;;0.49;40.60;103498.13;5017087;27;99119;-70
2024/01/09 09:43:35;;;;;;;37.60;14.15;;;;;;;0.34;40.21;103498.25;5025307;27;99368;-76
2024/01/09 09:46:03;;;;;;;35.40;13.05;;;;;;;0.35;40.85;103502.66;5020483;27;96788;-71
2024/01/09 09:48:32;;;;;;;232.50;24.25;;;;;;;0.57;40.45;103495.91;5024641;27;97055;-71
2024/01/09 09:51:00;;;;;;;33.55;13.32;;;;;;;0.61;40.09;103490.03;5019065;27;97656;-72
2024/01/09 09:53:30;;;;;;;41.45;14.52;;;;;;;0.53;39.98;103489.66;5025647;27;98890;-72
2024/01/09 09:55:58;;;;;;;35.38;13.25;;;;;;;0.72;40.12;103487.13;5024602;27;96863;-71
2024/01/09 09:58:24;;;;;;;39.60;13.60;;;;;;;0.91;39.28;103488.91;5021043;27;97532;-71
2024/01/09 10:00:55;;;;;;;39.70;14.25;;;;;;;1.03;38.80;103481.66;5020338;27;98966;-71
2024/01/09 10:03:25;;;;;;;39.22;14.68;;;;;;;0.69;39.39;103486.97;5020708;27;99284;-71
2024/01/09 10:05:54;;;;;;;36.92;14.10;;;;;;;0.59;39.65;103482.13;5026580;27;97243;-72
2024/01/09 10:08:22;;;;;;;33.58;13.95;;;;;;;0.94;39.18;103480.34;5018753;27;96792;-71
2024/01/09 10:10:49;;;;;;;33.80;13.35;;;;;;;0.84;39.45;103478.13;5019805;27;98872;-72
2024/01/09 10:13:16;;;;;;;46.92;15.15;;;;;;;1.30;38.28;103479.47;5020613;27;98474;-72
2024/01/09 10:15:58;;;;;;;32.25;13.07;;;;;;;1.38;38.29;103482.41;5023324;27;97788;-72
2024/01/09 10:18:28;;;;;;;34.20;13.80;;;;;;;1.32;38.16;103474.28;5023285;27;96969;-71
2024/01/09 10:20:55;;;;;;;37.35;15.10;;;;;;;1.25;38.16;103480.06;5026245;27;99139;-72
2024/01/09 10:23:21;;;;;;;33.63;13.45;;;;;;;1.37;38.49;103476.31;5024029;28;98827;-72
2024/01/09 10:25:48;;;;;;;38.67;15.10;;;;;;;1.43;38.29;103484.41;5026687;27;98362;-72
2024/01/09 10:28:17;;;;;;;35.20;12.73;;;;;;;1.29;38.30;103476.78;5026078;27;97382;-71
2024/01/09 10:30:44;;;;;;;35.72;14.07;;;;;;;1.55;37.87;103471.03;5024992;27;101781;-71
2024/01/09 10:33:11;;;;;;;34.83;13.27;;;;;;;1.41;37.54;103472.13;5027241;27;99105;-71
2024/01/09 10:35:37;;;;;;;34.95;13.13;;;;;;;1.04;37.83;103469.53;5025008;27;97330;-71
2024/01/09 10:38:04;;;;;;;35.72;13.57;;;;;;;1.21;38.38;103476.41;5021585;27;101267;-72
2024/01/09 10:40:31;;;;;;;35.58;12.60;;;;;;;1.45;37.96;103461.88;5023910;27;99409;-72
2024/01/09 10:42:57;;;;;;;33.80;13.80;;;;;;;1.46;38.00;103461.06;5030449;27;99226;-73
2024/01/09 10:45:27;;;;;;;40.58;14.55;;;;;;;1.54;38.02;103464.03;5024494;27;96715;-71
2024/01/09 10:47:54;;;;;;;33.47;12.55;;;;;;;1.52;37.73;103463.94;5026808;27;97488;-72
2024/01/09 10:50:21;;;;;;;34.38;13.45;;;;;;;1.52;37.56;103463.94;5023990;27;99567;-72
2024/01/09 10:52:48;;;;;;;33.42;13.98;;;;;;;1.54;37.70;103464.91;5026073;27;98870;-76
2024/01/09 10:55:15;;;;;;;36.90;13.65;;;;;;;1.46;37.87;103465.38;5019514;27;97380;-75
2024/01/09 10:57:42;;;;;;;35.13;13.05;;;;;;;1.49;37.89;103468.16;5019643;27;96890;-75
2024/01/09 11:00:12;;;;;;;34.90;14.13;;;;;;;1.45;37.83;103471.41;5019588;27;99051;-76
2024/01/09 11:02:40;;;;;;;42.75;14.55;;;;;;;1.59;37.90;103454.69;5019662;27;101684;-75
2024/01/09 11:05:08;;;;;;;34.63;13.32;;;;;;;1.59;37.42;103457.28;5023455;27;96786;-76
2024/01/09 11:07:35;;;;;;;34.13;13.45;;;;;;;1.49;37.45;103466.44;5021956;27;97083;-75
2024/01/09 11:10:03;;;;;;;28.58;12.15;;;;;;;1.90;37.33;103446.50;5026885;27;99170;-76
2024/01/09 11:12:33;;;;;;;27.58;12.18;;;;;;;1.76;37.23;103448.50;5026658;27;98733;-76